TAF Text Data
IDs:
Format:
Raw Decoded Include METAR

Data at: 0142 UTC 29 Nov 2020

KHIE 282320Z 2900/2924 23003KT P6SM BKN040